createdAt,value
2023-05-04T00:00:17.882Z,15.2000
2023-05-04T00:01:21.819Z,12.6500
2023-05-04T00:02:26.081Z,7.4667
2023-05-04T00:03:32.393Z,6.0182
2023-05-04T00:04:36.739Z,7.4667
2023-05-04T00:05:40.603Z,11.2000
2023-05-04T00:06:44.518Z,16.0000
2023-05-04T00:07:48.640Z,13.2667
2023-05-04T00:08:52.555Z,7.9167
2023-05-04T00:09:56.453Z,5.7833
2023-05-04T00:11:00.374Z,6.8000
2023-05-04T00:12:04.278Z,10.2500
2023-05-04T00:13:08.230Z,14.7833
2023-05-04T00:14:12.114Z,11.7833
2023-05-04T00:15:15.990Z,5.4500
2023-05-04T00:16:19.921Z,3.6167
2023-05-04T00:17:24.136Z,4.3167
2023-05-04T00:18:28.054Z,7.4500
2023-05-04T00:19:32.280Z,12.5167
2023-05-04T00:20:36.210Z,11.6500
2023-05-04T00:21:40.089Z,6.4500
2023-05-04T00:22:44.009Z,4.7333
2023-05-04T00:23:47.872Z,5.8167
2023-05-04T00:24:51.797Z,9.1167
2023-05-04T00:25:55.681Z,13.7833
2023-05-04T00:26:59.592Z,11.9833
2023-05-04T00:28:03.485Z,5.2667
2023-05-04T00:29:07.380Z,3.3333
2023-05-04T00:30:11.549Z,3.8167
2023-05-04T00:31:15.491Z,6.5000
2023-05-04T00:32:19.594Z,11.5667
2023-05-04T00:33:23.579Z,11.9667
2023-05-04T00:34:27.432Z,6.5000
2023-05-04T00:35:31.314Z,4.5333
2023-05-04T00:36:35.198Z,5.4500
2023-05-04T00:37:39.091Z,8.4167
2023-05-04T00:38:42.976Z,13.1667
2023-05-04T00:39:46.877Z,12.7000
2023-05-04T00:40:50.756Z,6.0500
2023-05-04T00:41:54.674Z,3.6000
2023-05-04T00:42:58.603Z,3.8333
2023-05-04T00:44:02.496Z,6.2333
2023-05-04T00:45:06.370Z,11.1667
2023-05-04T00:46:10.293Z,12.2667
2023-05-04T00:47:14.205Z,6.4000
2023-05-04T00:48:18.077Z,4.0333
2023-05-04T00:49:22.018Z,4.5833
2023-05-04T00:50:25.898Z,7.2500
2023-05-04T00:51:29.806Z,11.9667
2023-05-04T00:52:33.702Z,13.0167
2023-05-04T00:53:37.612Z,6.8333
2023-05-04T00:54:41.493Z,4.0500
2023-05-04T00:55:45.413Z,4.3333
2023-05-04T00:56:49.288Z,6.8833
2023-05-04T00:57:53.201Z,11.5833
2023-05-04T00:58:57.070Z,13.0333
2023-05-04T01:00:00.981Z,6.3500
2023-05-04T01:01:04.928Z,3.3000
2023-05-04T01:02:08.887Z,3.4833
2023-05-04T01:03:12.794Z,5.4333
2023-05-04T01:04:16.686Z,10.1167
2023-05-04T01:05:20.573Z,13.6000
2023-05-04T01:06:24.497Z,8.2167
2023-05-04T01:07:28.428Z,4.2833
2023-05-04T01:08:32.351Z,4.2833
2023-05-04T01:09:36.265Z,6.3833
2023-05-04T01:10:36.591Z,10.6364
2023-05-04T01:11:40.548Z,14.8667
2023-05-04T01:12:44.468Z,10.5167
2023-05-04T01:13:48.435Z,5.5500
2023-05-04T01:14:52.371Z,4.5833
2023-05-04T01:15:56.250Z,6.3167
2023-05-04T01:17:00.361Z,10.2333
2023-05-04T01:18:04.346Z,15.0000
2023-05-04T01:19:08.294Z,11.6333
2023-05-04T01:20:12.195Z,6.8167
2023-05-04T01:21:16.094Z,5.3333
2023-05-04T01:22:20.280Z,6.8167
2023-05-04T01:23:24.175Z,10.4833
2023-05-04T01:24:28.090Z,14.8167
2023-05-04T01:25:32.262Z,10.6167
2023-05-04T01:26:36.133Z,4.3667
2023-05-04T01:27:40.049Z,3.2167
2023-05-04T01:28:43.927Z,4.1167
2023-05-04T01:29:47.835Z,7.4667
2023-05-04T01:30:51.739Z,12.7667
2023-05-04T01:31:55.630Z,11.8833
2023-05-04T01:32:59.569Z,6.6833
2023-05-04T01:34:03.440Z,5.0667
2023-05-04T01:35:07.658Z,6.3000
2023-05-04T01:36:11.550Z,9.5667
2023-05-04T01:37:15.689Z,14.3667
2023-05-04T01:38:19.632Z,12.9167
2023-05-04T01:39:23.545Z,7.7167
2023-05-04T01:40:27.451Z,5.5667
2023-05-04T01:41:31.355Z,6.5333
2023-05-04T01:42:35.498Z,9.7667
2023-05-04T01:43:39.437Z,14.1500
2023-05-04T01:44:43.296Z,10.9667
2023-05-04T01:45:47.361Z,3.7167
2023-05-04T01:46:51.244Z,2.3000
2023-05-04T01:47:55.216Z,2.8833
2023-05-04T01:48:59.135Z,4.8500
2023-05-04T01:50:03.341Z,10.0833
2023-05-04T01:51:07.396Z,13.0333
2023-05-04T01:52:11.320Z,8.3500
2023-05-04T01:53:15.203Z,6.2500
2023-05-04T01:54:19.114Z,7.1167
2023-05-04T01:55:23.047Z,9.8333
2023-05-04T01:56:26.946Z,14.4333
2023-05-04T01:57:31.075Z,15.8000
2023-05-04T01:58:34.992Z,9.6500
2023-05-04T01:59:38.873Z,6.2500
2023-05-04T02:00:42.784Z,5.8833
2023-05-04T02:01:46.733Z,8.4333
2023-05-04T02:02:50.678Z,12.9000
2023-05-04T02:03:54.689Z,13.8500
2023-05-04T02:04:58.601Z,6.2500
2023-05-04T02:06:02.573Z,2.7667
2023-05-04T02:07:06.463Z,2.8667
2023-05-04T02:08:10.619Z,4.3167
2023-05-04T02:09:14.551Z,8.7500
2023-05-04T02:12:10.759Z,48.9500
2023-05-04T02:13:12.595Z,47.3846
2023-05-04T02:14:14.190Z,46.6308
2023-05-04T02:15:15.901Z,47.2769
2023-05-04T02:16:17.739Z,48.7692
2023-05-04T02:17:19.354Z,41.5538
2023-05-04T02:18:21.088Z,28.8615
2023-05-04T02:19:22.787Z,20.3077
2023-05-04T02:20:24.540Z,13.6000
2023-05-04T02:21:26.231Z,15.2154
2023-05-04T02:22:27.987Z,19.3231
2023-05-04T02:23:29.682Z,22.0000
2023-05-04T02:24:31.407Z,15.8462
2023-05-04T02:25:33.130Z,11.3692
2023-05-04T02:26:34.849Z,9.4615
2023-05-04T02:27:36.557Z,11.3077
2023-05-04T02:28:38.289Z,15.2000
2023-05-04T02:29:39.985Z,18.6769
2023-05-04T02:30:41.732Z,12.7692
2023-05-04T02:31:43.544Z,5.3538
2023-05-04T02:32:45.182Z,3.4769
2023-05-04T02:33:46.858Z,4.2615
2023-05-04T02:34:48.605Z,7.4615
2023-05-04T02:35:50.291Z,12.9385
2023-05-04T02:36:52.040Z,14.4615
2023-05-04T02:37:53.732Z,9.6769
2023-05-04T02:38:55.468Z,7.7538
2023-05-04T02:39:57.169Z,8.5538
2023-05-04T02:40:58.914Z,11.2769
2023-05-04T02:42:00.616Z,15.6308
2023-05-04T02:43:02.378Z,16.6154
2023-05-04T02:44:04.054Z,8.9385
2023-05-04T02:45:05.802Z,3.8769
2023-05-04T02:46:07.521Z,3.2923
2023-05-04T02:47:09.221Z,4.5538
2023-05-04T02:48:10.951Z,8.6462
2023-05-04T02:49:12.698Z,13.8462
2023-05-04T02:50:14.413Z,11.4154
2023-05-04T02:51:16.087Z,6.7538
2023-05-04T02:52:17.828Z,5.6000
2023-05-04T02:53:19.533Z,7.0000
2023-05-04T02:54:21.266Z,10.3385
2023-05-04T02:55:22.994Z,15.0308
2023-05-04T02:56:24.711Z,13.7538
2023-05-04T02:57:26.422Z,7.4000
2023-05-04T02:58:28.124Z,4.6615
2023-05-04T02:59:29.877Z,4.9538
2023-05-04T03:00:31.571Z,7.6462
2023-05-04T03:01:34.827Z,12.2154
2023-05-04T03:02:35.044Z,13.6615
2023-05-04T03:03:36.731Z,7.0769
2023-05-04T03:04:38.531Z,3.6462
2023-05-04T03:05:40.210Z,3.5846
2023-05-04T03:06:41.888Z,5.2462
2023-05-04T03:07:43.634Z,9.4769
2023-05-04T03:08:45.325Z,13.6769
2023-05-04T03:09:48.084Z,9.3846
2023-05-04T03:10:48.779Z,4.6923
2023-05-04T03:11:50.506Z,4.0154
2023-05-04T03:12:52.273Z,5.4923
2023-05-04T03:13:53.955Z,9.1077
2023-05-04T03:14:55.645Z,13.9692
2023-05-04T03:15:57.404Z,12.0308
2023-05-04T03:16:59.076Z,5.3692
2023-05-04T03:18:00.930Z,3.4462
2023-05-04T03:19:02.537Z,4.1231
2023-05-04T03:20:04.443Z,6.7538
2023-05-04T03:21:06.003Z,11.6615
2023-05-04T03:22:07.690Z,14.2308
2023-05-04T03:23:09.408Z,9.2154
2023-05-04T03:24:11.137Z,6.3231
2023-05-04T03:25:12.845Z,6.4000
2023-05-04T03:26:14.590Z,8.6000
2023-05-04T03:27:16.297Z,12.6923
2023-05-04T03:28:18.014Z,15.6000
2023-05-04T03:29:19.714Z,9.5538
2023-05-04T03:30:21.453Z,4.2615
2023-05-04T03:31:23.297Z,3.4154
2023-05-04T03:32:24.959Z,4.4615
2023-05-04T03:33:26.603Z,8.0923
2023-05-04T03:34:28.314Z,13.1385
2023-05-04T03:35:30.035Z,11.3385
2023-05-04T03:36:31.767Z,5.2000
2023-05-04T03:37:33.492Z,3.5692
2023-05-04T03:38:35.177Z,4.5077
2023-05-04T03:39:36.890Z,7.3846
2023-05-04T03:40:38.634Z,12.2923
2023-05-04T03:41:40.352Z,14.4154
2023-05-04T03:42:42.086Z,7.9846
2023-05-04T03:43:43.780Z,3.8769
2023-05-04T03:44:45.512Z,3.8769
2023-05-04T03:45:47.248Z,5.8923
2023-05-04T03:46:48.984Z,10.0462
2023-05-04T03:47:50.678Z,15.2000
2023-05-04T03:48:52.386Z,12.6462
2023-05-04T03:49:54.079Z,7.0462
2023-05-04T03:50:55.819Z,5.2923
2023-05-04T03:51:57.521Z,6.4308
2023-05-04T03:52:59.258Z,9.5846
2023-05-04T03:54:00.962Z,14.4462
2023-05-04T03:55:02.692Z,15.1846
2023-05-04T03:56:04.400Z,8.4769
2023-05-04T03:57:06.117Z,4.8462
2023-05-04T03:58:07.845Z,4.7692
2023-05-04T03:59:09.540Z,7.0615
2023-05-04T04:00:11.290Z,11.4308
2023-05-04T04:01:12.974Z,15.4923
2023-05-04T04:02:14.733Z,11.1846
2023-05-04T04:03:16.681Z,7.3692
2023-05-04T04:04:18.205Z,6.4923
2023-05-04T04:05:19.875Z,8.2462
2023-05-04T04:06:21.630Z,11.8769
2023-05-04T04:07:23.325Z,15.9231
2023-05-04T04:08:25.007Z,11.4769
2023-05-04T04:09:26.749Z,4.4923
2023-05-04T04:10:28.450Z,2.9077
2023-05-04T04:11:30.173Z,3.4923
2023-05-04T04:12:31.960Z,5.9077
2023-05-04T04:13:33.631Z,11.1077
2023-05-04T04:14:35.330Z,13.5846
2023-05-04T04:15:37.060Z,7.7385
2023-05-04T04:16:38.901Z,4.3077
2023-05-04T04:17:40.606Z,4.6154
2023-05-04T04:18:42.206Z,6.9385
2023-05-04T04:19:43.944Z,11.2154
2023-05-04T04:20:45.642Z,15.8000
2023-05-04T04:21:47.381Z,11.9538
2023-05-04T04:22:49.100Z,7.0000
2023-05-04T04:23:50.825Z,5.4923
2023-05-04T04:24:52.513Z,6.8615
2023-05-04T04:25:54.267Z,10.3385
2023-05-04T04:26:55.950Z,15.1077
2023-05-04T04:27:57.728Z,13.6000
2023-05-04T04:28:59.405Z,5.8923
2023-05-04T04:30:01.125Z,3.0154
2023-05-04T04:31:02.890Z,3.3077
2023-05-04T04:32:04.535Z,5.3385
2023-05-04T04:33:06.311Z,10.0923
2023-05-04T04:34:07.977Z,15.0000
2023-05-04T04:35:09.722Z,11.5846
2023-05-04T04:36:11.417Z,7.7538
2023-05-04T04:37:13.160Z,6.9538
2023-05-04T04:38:14.876Z,8.6308
2023-05-04T04:39:16.649Z,12.2000
2023-05-04T04:40:18.299Z,16.5692
2023-05-04T04:41:20.058Z,13.5538
2023-05-04T04:42:21.757Z,7.8615
2023-05-04T04:43:23.480Z,5.3385
2023-05-04T04:44:25.165Z,5.9538
2023-05-04T04:45:26.892Z,9.0615
2023-05-04T04:46:28.664Z,13.6769
2023-05-04T04:47:30.347Z,12.9385
2023-05-04T04:48:32.059Z,5.6462
2023-05-04T04:49:33.775Z,3.0154
2023-05-04T04:50:35.464Z,3.1538
2023-05-04T04:51:37.207Z,4.7692
2023-05-04T04:52:38.907Z,9.2615
2023-05-04T04:53:40.664Z,13.3538
2023-05-04T04:54:42.356Z,8.8462
2023-05-04T04:55:44.075Z,4.5692
2023-05-04T04:56:45.766Z,4.1538
2023-05-04T04:57:47.509Z,5.8769
2023-05-04T04:58:49.382Z,9.6769
2023-05-04T04:59:50.950Z,14.4615
2023-05-04T05:00:52.702Z,11.9846
2023-05-04T05:01:54.363Z,5.8308
2023-05-04T05:02:56.150Z,3.9231
2023-05-04T05:03:57.824Z,4.6615
2023-05-04T05:04:59.624Z,7.6308
2023-05-04T05:06:01.255Z,12.4769
2023-05-04T05:07:02.958Z,13.6308
2023-05-04T05:08:04.698Z,7.0615
2023-05-04T05:09:06.416Z,3.8462
2023-05-04T05:10:08.331Z,3.9846
2023-05-04T05:11:09.854Z,6.0615
2023-05-04T05:12:11.582Z,10.5385
2023-05-04T05:13:13.332Z,14.6615
2023-05-04T05:14:15.023Z,9.8769
2023-05-04T05:15:16.710Z,4.2308
2023-05-04T05:16:18.481Z,3.3846
2023-05-04T05:17:20.148Z,4.5692
2023-05-04T05:18:21.891Z,7.9692
2023-05-04T05:19:23.589Z,13.2462
2023-05-04T05:20:25.331Z,13.8308
2023-05-04T05:21:27.029Z,9.5077
2023-05-04T05:22:28.780Z,7.8462
2023-05-04T05:23:30.468Z,8.8462
2023-05-04T05:24:32.253Z,11.6923
2023-05-04T05:25:33.908Z,15.8154
2023-05-04T05:26:35.651Z,15.1077
2023-05-04T05:27:37.355Z,7.7077
2023-05-04T05:28:39.115Z,4.0769
2023-05-04T05:29:40.814Z,3.4923
2023-05-04T05:30:42.554Z,5.1538
2023-05-04T05:31:44.249Z,9.4308
2023-05-04T05:32:47.696Z,12.2615
2023-05-04T05:33:47.692Z,7.4462
2023-05-04T05:34:49.400Z,4.6462
2023-05-04T05:35:51.124Z,4.5692
2023-05-04T05:36:52.823Z,6.7077
2023-05-04T05:37:54.603Z,10.6000
2023-05-04T05:38:56.261Z,13.3538
2023-05-04T05:39:58.030Z,7.0923
2023-05-04T05:40:59.702Z,2.8000
2023-05-04T05:42:01.447Z,2.4923
2023-05-04T05:43:03.134Z,2.8462
2023-05-04T05:44:04.880Z,1.7692
2023-05-04T05:45:06.619Z,1.4308
2023-05-04T05:46:08.379Z,1.2308
2023-05-04T05:47:10.034Z,1.2000
2023-05-04T05:48:11.806Z,1.2000
2023-05-04T05:49:13.475Z,1.3538
2023-05-04T05:50:15.213Z,1.4462
2023-05-04T05:51:16.939Z,1.7077
2023-05-04T05:52:18.673Z,2.3846
2023-05-04T05:53:20.361Z,2.4308
2023-05-04T05:54:22.063Z,1.8769
2023-05-04T05:55:23.792Z,1.6000
2023-05-04T05:56:25.540Z,1.7077
2023-05-04T05:57:27.243Z,3.8923
2023-05-04T05:58:29.016Z,7.9385
2023-05-04T05:59:30.691Z,13.4462
2023-05-04T06:00:32.456Z,20.3231
2023-05-04T06:01:34.142Z,26.4000
2023-05-04T06:02:35.979Z,30.0923
2023-05-04T06:03:37.810Z,34.2308
2023-05-04T06:04:39.377Z,38.4462
2023-05-04T06:05:41.046Z,42.8923
2023-05-04T06:06:45.049Z,46.7538
2023-05-04T06:07:44.461Z,39.5846
2023-05-04T06:08:46.197Z,25.0308
2023-05-04T06:09:47.998Z,14.5846
2023-05-04T06:10:49.651Z,4.3538
2023-05-04T06:11:53.375Z,3.6308
2023-05-04T06:12:53.121Z,6.3846
2023-05-04T06:13:54.871Z,10.6308
2023-05-04T06:14:56.613Z,6.8154
2023-05-04T06:15:58.349Z,3.8769
2023-05-04T06:17:00.057Z,4.1846
2023-05-04T06:18:01.810Z,6.2154
2023-05-04T06:19:03.490Z,10.1077
2023-05-04T06:20:05.314Z,13.2308
2023-05-04T06:21:06.936Z,6.4308
2023-05-04T06:22:08.671Z,1.9538
2023-05-04T06:23:10.366Z,1.4769
2023-05-04T06:24:12.067Z,1.5846
2023-05-04T06:25:13.823Z,2.0154
2023-05-04T06:26:15.522Z,3.8769
2023-05-04T06:27:17.241Z,6.3538
2023-05-04T06:28:18.964Z,3.1846
2023-05-04T06:29:20.684Z,2.4923
2023-05-04T06:30:22.384Z,2.7692
2023-05-04T06:31:24.169Z,4.0000
2023-05-04T06:32:25.864Z,8.2308
2023-05-04T06:33:27.552Z,11.4000
2023-05-04T06:34:29.270Z,5.4308
2023-05-04T06:35:30.973Z,2.2000
2023-05-04T06:36:32.734Z,1.8769
2023-05-04T06:37:34.413Z,2.2000
2023-05-04T06:38:38.002Z,3.4154
2023-05-04T06:39:37.953Z,8.1231
2023-05-04T06:40:39.609Z,8.3231
2023-05-04T06:41:41.328Z,3.1846
2023-05-04T06:42:43.042Z,2.2308
2023-05-04T06:43:44.740Z,2.5077
2023-05-04T06:44:46.485Z,3.6154
2023-05-04T06:45:48.221Z,7.9077
2023-05-04T06:46:49.933Z,12.4769
2023-05-04T06:47:51.660Z,7.8308
2023-05-04T06:48:53.352Z,3.6308
2023-05-04T06:49:55.081Z,3.0923
2023-05-04T06:50:56.784Z,3.9385
2023-05-04T06:51:58.543Z,7.4308
2023-05-04T06:53:00.221Z,12.6000
2023-05-04T06:54:01.993Z,10.9846
2023-05-04T06:55:03.663Z,6.2615
2023-05-04T06:56:05.468Z,4.1538
2023-05-04T06:57:07.098Z,5.0308
2023-05-04T06:58:08.875Z,8.2000
2023-05-04T06:59:10.541Z,12.7846
2023-05-04T07:00:12.280Z,11.0615
2023-05-04T07:01:15.668Z,4.5385
2023-05-04T07:02:15.722Z,2.7385
2023-05-04T07:03:17.471Z,2.6923
2023-05-04T07:04:19.137Z,3.8154
2023-05-04T07:05:20.861Z,7.9692
2023-05-04T07:06:22.554Z,9.2462
2023-05-04T07:07:24.317Z,3.6615
2023-05-04T07:08:26.024Z,2.2615
2023-05-04T07:09:27.747Z,2.3538
2023-05-04T07:10:29.445Z,3.0615
2023-05-04T07:11:31.135Z,6.2769
2023-05-04T07:12:32.916Z,10.5077
2023-05-04T07:13:34.567Z,5.9077
2023-05-04T07:14:36.308Z,2.3231
2023-05-04T07:15:38.036Z,2.0308
2023-05-04T07:16:39.789Z,2.7077
2023-05-04T07:17:41.475Z,4.5846
2023-05-04T07:18:43.167Z,10.0308
2023-05-04T07:19:44.888Z,11.9538
2023-05-04T07:20:46.607Z,7.2615
2023-05-04T07:21:48.356Z,5.3231
2023-05-04T07:22:50.071Z,6.1538
2023-05-04T07:23:51.791Z,8.8769
2023-05-04T07:24:53.492Z,13.4000
2023-05-04T07:25:55.187Z,15.2615
2023-05-04T07:26:56.908Z,8.1692
2023-05-04T07:27:58.654Z,3.5077
2023-05-04T07:29:00.339Z,2.8923
2023-05-04T07:30:02.279Z,3.7077
2023-05-04T07:31:03.776Z,7.2154
2023-05-04T07:32:05.521Z,12.3077
2023-05-04T07:33:07.265Z,10.1231
2023-05-04T07:34:08.971Z,6.7385
2023-05-04T07:35:10.676Z,6.1077
2023-05-04T07:36:12.397Z,7.7231
2023-05-04T07:37:14.302Z,11.2154
2023-05-04T07:38:15.843Z,15.2615
2023-05-04T07:39:17.548Z,10.9385
2023-05-04T07:40:19.282Z,4.2923
2023-05-04T07:41:20.988Z,2.7692
2023-05-04T07:42:22.772Z,2.9692
2023-05-04T07:43:24.442Z,4.7538
2023-05-04T07:44:26.146Z,9.5231
2023-05-04T07:45:27.880Z,9.9692
2023-05-04T07:46:29.627Z,3.6308
2023-05-04T07:47:31.377Z,1.9538
2023-05-04T07:48:33.044Z,2.1077
2023-05-04T07:49:34.740Z,3.1385
2023-05-04T07:50:36.473Z,6.6000
2023-05-04T07:51:38.180Z,12.6923
2023-05-04T07:52:39.908Z,12.0462
2023-05-04T07:53:41.642Z,8.3231
2023-05-04T07:54:43.337Z,7.7692
2023-05-04T07:55:45.045Z,9.2769
2023-05-04T07:56:46.777Z,12.6154
2023-05-04T07:57:48.476Z,17.1846
2023-05-04T07:58:50.222Z,15.2615
2023-05-04T07:59:51.911Z,7.3846
2023-05-04T08:00:53.640Z,3.8615
2023-05-04T08:01:55.402Z,3.4923
2023-05-04T08:02:57.133Z,5.3846
2023-05-04T08:03:58.844Z,10.0615
2023-05-04T08:05:00.561Z,13.4308
2023-05-04T08:06:02.275Z,8.5538
2023-05-04T08:07:03.982Z,5.2923
2023-05-04T08:08:05.710Z,5.1077
2023-05-04T08:09:07.441Z,7.1692
2023-05-04T08:10:09.164Z,11.2769
2023-05-04T08:11:19.967Z,14.8154
2023-05-04T08:12:12.577Z,9.1846
2023-05-04T08:13:14.345Z,3.4615
2023-05-04T08:14:16.026Z,2.6615
2023-05-04T08:15:17.755Z,3.2462
2023-05-04T08:16:19.462Z,5.7231
2023-05-04T08:17:21.170Z,11.0154
2023-05-04T08:18:22.983Z,11.6308
2023-05-04T08:19:24.615Z,7.2000
2023-05-04T08:20:26.360Z,5.7692
2023-05-04T08:21:28.053Z,6.8154
2023-05-04T08:22:29.767Z,9.7385
2023-05-04T08:23:31.462Z,14.1692
2023-05-04T08:24:33.188Z,13.9846
2023-05-04T08:25:34.938Z,7.2154
2023-05-04T08:26:36.646Z,3.9538
2023-05-04T08:27:38.352Z,3.5692
2023-05-04T08:28:40.095Z,5.3846
2023-05-04T08:29:41.810Z,9.7231
2023-05-04T08:30:43.500Z,12.0154
2023-05-04T08:31:45.308Z,6.0308
2023-05-04T08:32:46.977Z,3.1077
2023-05-04T08:33:48.701Z,3.0154
2023-05-04T08:34:50.409Z,4.1692
2023-05-04T08:35:52.125Z,7.9538
2023-05-04T08:36:53.817Z,12.0769
2023-05-04T08:37:56.543Z,7.7538
2023-05-04T08:38:57.612Z,3.5538
2023-05-04T08:39:59.000Z,3.1231
2023-05-04T08:41:00.695Z,4.0923
2023-05-04T08:42:02.415Z,7.4308
2023-05-04T08:43:04.146Z,12.3231
2023-05-04T08:44:05.858Z,10.2923
2023-05-04T08:45:07.609Z,4.2615
2023-05-04T08:46:09.415Z,2.9538
2023-05-04T08:47:11.018Z,3.6308
2023-05-04T08:48:12.732Z,6.0462
2023-05-04T08:49:14.467Z,11.0000
2023-05-04T08:50:16.212Z,12.8923
2023-05-04T08:51:17.890Z,7.2615
2023-05-04T08:52:19.605Z,4.3846
2023-05-04T08:53:21.333Z,4.6769
2023-05-04T08:54:23.048Z,6.9231
2023-05-04T08:55:24.790Z,11.2308
2023-05-04T08:56:26.484Z,14.3692
2023-05-04T08:57:28.199Z,8.7692
2023-05-04T08:58:29.921Z,4.4154
2023-05-04T08:59:31.663Z,3.6615
2023-05-04T09:00:33.448Z,5.0154
2023-05-04T09:01:35.125Z,8.8308
2023-05-04T09:02:36.815Z,13.3538
2023-05-04T09:03:38.604Z,10.0462
2023-05-04T09:04:40.243Z,5.4308
2023-05-04T09:05:41.985Z,4.2462
2023-05-04T09:06:43.683Z,5.4923
2023-05-04T09:07:45.413Z,8.8769
2023-05-04T09:08:47.112Z,13.4000
2023-05-04T09:09:48.841Z,10.9692
2023-05-04T09:10:50.558Z,4.0154
2023-05-04T09:11:52.265Z,2.4769
2023-05-04T09:12:54.042Z,2.8462
2023-05-04T09:13:55.713Z,4.4308
2023-05-04T09:14:57.483Z,9.1692
2023-05-04T09:15:59.166Z,12.8308
2023-05-04T09:17:00.880Z,8.9692
2023-05-04T09:18:02.654Z,6.9538
2023-05-04T09:19:04.305Z,7.6462
2023-05-04T09:20:06.125Z,5.4769
2023-05-04T09:21:07.753Z,3.8154
2023-05-04T09:22:09.451Z,3.6769
2023-05-04T09:23:11.182Z,1.8000
2023-05-04T09:24:12.890Z,1.2308
2023-05-04T09:25:14.577Z,1.2308
2023-05-04T09:26:16.321Z,1.7538
2023-05-04T09:27:18.078Z,2.5692
2023-05-04T09:28:19.737Z,6.4308
2023-05-04T09:29:21.464Z,9.9538
2023-05-04T09:30:23.179Z,6.5077
2023-05-04T09:31:24.988Z,5.3692
2023-05-04T09:32:26.646Z,6.4615
2023-05-04T09:33:28.370Z,8.6923
2023-05-04T09:34:30.069Z,5.4769
2023-05-04T09:35:33.597Z,2.9077
2023-05-04T09:36:33.526Z,1.5077
2023-05-04T09:37:35.244Z,1.2000
2023-05-04T09:38:36.938Z,1.4000
2023-05-04T09:39:38.674Z,1.8923
2023-05-04T09:40:40.405Z,3.1538
2023-05-04T09:41:42.131Z,8.0308
2023-05-04T09:42:43.828Z,8.5846
2023-05-04T10:08:11.586Z,45.8833
2023-05-04T10:09:13.292Z,29.7231
2023-05-04T10:10:15.060Z,11.8615
2023-05-04T23:25:29.006Z,0.8000
2023-05-04T23:38:41.226Z,0.8000
2023-05-04T23:39:42.963Z,0.8000
